createdAt,value
2023-01-29T00:02:04.668Z,97038.56
2023-01-29T00:04:31.331Z,97043.34
2023-01-29T00:06:58.026Z,97063.88
2023-01-29T00:09:24.472Z,97068.69
2023-01-29T00:11:50.788Z,97078.09
2023-01-29T00:14:17.488Z,97071.31
2023-01-29T00:16:43.893Z,97062.34
2023-01-29T00:19:10.205Z,97053.78
2023-01-29T00:21:36.891Z,97049.31
2023-01-29T00:24:03.409Z,97053.78
2023-01-29T00:26:30.163Z,97061.38
2023-01-29T00:29:02.277Z,97053.81
2023-01-29T00:31:29.522Z,97053.09
2023-01-29T00:33:56.091Z,97061.59
2023-01-29T00:36:23.235Z,97065.75
2023-01-29T00:38:59.132Z,97061.75
2023-01-29T00:41:49.729Z,97055.34
2023-01-29T00:44:35.514Z,97068.97
2023-01-29T00:47:02.917Z,97056.66
2023-01-29T00:49:30.284Z,97049.09
2023-01-29T00:52:15.776Z,97041.84
2023-01-29T00:54:42.139Z,97039.94
2023-01-29T00:57:08.541Z,97045.44
2023-01-29T00:59:35.351Z,97048.47
2023-01-29T01:02:20.338Z,97049.22
2023-01-29T01:04:47.216Z,97058.53
2023-01-29T01:09:57.819Z,97046.69
2023-01-29T01:12:24.195Z,97050.72
2023-01-29T01:14:50.579Z,97046.84
2023-01-29T01:17:17.265Z,97044.47
2023-01-29T01:19:43.586Z,97043.16
2023-01-29T01:22:09.984Z,97045.78
2023-01-29T01:24:37.815Z,97050.28
2023-01-29T01:27:04.332Z,97041.25
2023-01-29T01:29:30.745Z,97036.03
2023-01-29T01:31:57.867Z,97037.13
2023-01-29T01:34:24.272Z,97031.06
2023-01-29T01:36:50.594Z,97027.53
2023-01-29T01:39:17.281Z,97029.16
2023-01-29T01:41:44.220Z,97039.25
2023-01-29T01:44:47.811Z,97039.34
2023-01-29T01:47:16.003Z,97037.66
2023-01-29T01:49:43.787Z,97027.38
2023-01-29T01:52:11.546Z,97035.81
2023-01-29T01:54:38.386Z,97028.81
2023-01-29T01:57:16.290Z,97035.09
2023-01-29T01:59:49.635Z,97030.34
2023-01-29T02:02:36.883Z,97027.53
2023-01-29T02:05:22.004Z,97024.22
2023-01-29T02:08:09.201Z,97029.31
2023-01-29T02:10:42.569Z,97019.94
2023-01-29T02:13:10.773Z,97018.53
2023-01-29T02:15:37.412Z,97007.13
2023-01-29T02:18:04.427Z,97012.59
2023-01-29T02:20:31.914Z,97018.03
2023-01-29T02:23:08.887Z,97019.00
2023-01-29T02:25:43.833Z,97023.03
2023-01-29T02:28:24.536Z,97031.19
2023-01-29T02:31:01.192Z,97028.22
2023-01-29T02:34:06.965Z,97031.28
2023-01-29T02:36:39.235Z,97033.81
2023-01-29T02:39:14.751Z,97039.59
2023-01-29T02:41:58.671Z,97038.66
2023-01-29T02:45:04.819Z,97032.28
2023-01-29T02:47:37.186Z,97032.28
2023-01-29T02:50:07.127Z,97029.88
2023-01-29T02:52:54.164Z,97032.84
2023-01-29T02:55:24.170Z,97025.66
2023-01-29T02:57:56.116Z,97038.91
2023-01-29T03:00:28.317Z,97032.25
2023-01-29T03:03:03.745Z,97040.53
2023-01-29T03:06:02.705Z,97034.09
2023-01-29T03:08:43.105Z,97034.00
2023-01-29T03:11:15.683Z,97040.28
2023-01-29T03:13:47.299Z,97041.97
2023-01-29T03:16:18.906Z,97044.34
2023-01-29T03:19:08.481Z,97046.38
2023-01-29T03:21:59.950Z,97043.63
2023-01-29T03:24:54.027Z,97038.78
2023-01-29T03:27:43.596Z,97042.56
2023-01-29T03:30:31.867Z,97033.22
2023-01-29T03:33:03.273Z,97033.81
2023-01-29T03:35:36.818Z,97034.19
2023-01-29T03:38:09.994Z,97026.94
2023-01-29T03:41:21.504Z,97038.69
2023-01-29T03:43:58.031Z,97030.75
2023-01-29T03:46:32.114Z,97031.44
2023-01-29T03:49:09.101Z,97031.31
2023-01-29T03:51:46.970Z,97030.38
2023-01-29T03:54:21.049Z,97024.69
2023-01-29T03:56:56.080Z,97021.59
2023-01-29T03:59:25.439Z,97032.03
2023-01-29T04:01:56.714Z,97030.84
2023-01-29T04:04:34.830Z,97029.09
2023-01-29T04:07:10.746Z,97036.03
2023-01-29T04:09:58.480Z,97035.59
2023-01-29T04:12:30.390Z,97040.06
2023-01-29T04:15:00.279Z,97031.78
2023-01-29T04:17:37.195Z,97036.28
2023-01-29T04:20:04.187Z,97037.69
2023-01-29T04:22:34.522Z,97034.38
2023-01-29T04:25:08.388Z,97027.38
2023-01-29T04:27:43.024Z,97040.66
2023-01-29T04:30:46.291Z,97041.28
2023-01-29T04:33:36.187Z,97040.22
2023-01-29T04:36:33.952Z,97041.84
2023-01-29T04:39:18.329Z,97041.97
2023-01-29T04:42:10.841Z,97046.34
2023-01-29T04:45:00.212Z,97044.94
2023-01-29T04:47:42.519Z,97042.34
2023-01-29T04:50:19.804Z,97039.63
2023-01-29T04:53:03.679Z,97053.00
2023-01-29T04:55:38.811Z,97050.72
2023-01-29T04:58:41.806Z,97041.97
2023-01-29T05:01:13.052Z,97053.78
2023-01-29T05:03:43.095Z,97057.13
2023-01-29T05:06:11.627Z,97058.91
2023-01-29T05:08:39.976Z,97062.59
2023-01-29T05:11:07.454Z,97054.31
2023-01-29T05:13:39.662Z,97041.50
2023-01-29T05:16:15.328Z,97050.53
2023-01-29T05:18:42.405Z,97044.97
2023-01-29T05:21:10.386Z,97052.28
2023-01-29T05:23:36.837Z,97043.84
2023-01-29T05:26:04.256Z,97040.06
2023-01-29T05:28:31.058Z,97041.03
2023-01-29T05:30:57.874Z,97045.19
2023-01-29T05:33:25.783Z,97042.69
2023-01-29T05:35:52.902Z,97037.81
2023-01-29T05:38:19.679Z,97029.91
2023-01-29T05:40:46.161Z,97039.63
2023-01-29T05:43:17.897Z,97033.91
2023-01-29T05:45:52.531Z,97032.28
2023-01-29T05:48:19.856Z,97036.63
2023-01-29T05:50:46.215Z,97045.06
2023-01-29T05:53:12.520Z,97050.13
2023-01-29T05:55:39.269Z,97046.09
2023-01-29T05:58:06.114Z,97041.56
2023-01-29T06:00:32.483Z,97057.47
2023-01-29T06:03:01.067Z,97054.16
2023-01-29T06:05:27.463Z,97044.28
2023-01-29T06:07:53.798Z,97044.28
2023-01-29T06:10:20.589Z,97032.84
2023-01-29T06:12:47.252Z,97034.59
2023-01-29T06:15:15.483Z,97034.81
2023-01-29T06:17:43.303Z,97031.97
2023-01-29T06:20:10.499Z,97035.53
2023-01-29T06:22:36.911Z,97029.81
2023-01-29T06:25:04.119Z,97019.38
2023-01-29T06:27:30.437Z,97014.16
2023-01-29T06:29:56.775Z,97013.84
2023-01-29T06:32:24.607Z,97004.72
2023-01-29T06:34:50.935Z,97008.88
2023-01-29T06:37:17.247Z,97008.13
2023-01-29T06:39:44.646Z,97005.25
2023-01-29T06:42:11.313Z,97014.25
2023-01-29T06:44:37.692Z,97022.91
2023-01-29T06:47:04.034Z,97013.78
2023-01-29T06:49:30.981Z,97013.16
2023-01-29T06:51:57.346Z,97018.47
2023-01-29T06:54:23.744Z,97018.72
2023-01-29T06:56:50.697Z,97017.78
2023-01-29T06:59:17.009Z,97027.97
2023-01-29T07:01:44.240Z,97024.47
2023-01-29T07:04:11.803Z,97034.91
2023-01-29T07:06:38.161Z,97040.47
2023-01-29T07:09:04.898Z,97039.13
2023-01-29T07:11:32.315Z,97047.66
2023-01-29T07:13:58.665Z,97050.03
2023-01-29T07:16:26.229Z,97042.56
2023-01-29T07:18:53.394Z,97041.16
2023-01-29T07:21:19.804Z,97046.00
2023-01-29T07:23:46.136Z,97029.06
2023-01-29T07:26:12.739Z,97032.03
2023-01-29T07:28:39.769Z,97026.72
2023-01-29T07:31:07.203Z,97027.88
2023-01-29T07:33:35.852Z,97043.16
2023-01-29T07:36:02.222Z,97049.31
2023-01-29T07:38:28.637Z,97062.56
2023-01-29T07:40:55.596Z,97057.72
2023-01-29T07:43:24.619Z,97060.22
2023-01-29T07:45:51.743Z,97065.66
2023-01-29T07:48:18.645Z,97070.88
2023-01-29T07:50:45.037Z,97068.50
2023-01-29T07:53:14.883Z,97062.22
2023-01-29T07:55:45.173Z,97060.38
2023-01-29T07:58:12.088Z,97057.63
2023-01-29T08:00:38.821Z,97061.03
2023-01-29T08:03:08.199Z,97065.53
2023-01-29T08:05:35.088Z,97071.22
2023-01-29T08:08:06.885Z,97061.66
2023-01-29T08:10:36.014Z,97066.56
2023-01-29T08:13:03.715Z,97071.00
2023-01-29T08:15:30.326Z,97077.13
2023-01-29T08:17:58.235Z,97070.34
2023-01-29T08:20:25.500Z,97066.22
2023-01-29T08:23:00.541Z,97069.94
2023-01-29T08:25:27.555Z,97072.41
2023-01-29T08:27:54.075Z,97071.91
2023-01-29T08:30:20.875Z,97075.16
2023-01-29T08:32:47.349Z,97075.59
2023-01-29T08:35:13.696Z,97083.19
2023-01-29T08:37:40.891Z,97075.16
2023-01-29T08:40:09.343Z,97074.78
2023-01-29T08:42:35.727Z,97089.06
2023-01-29T08:45:02.588Z,97091.94
2023-01-29T08:47:29.695Z,97081.28
2023-01-29T08:49:56.123Z,97079.84
2023-01-29T08:52:22.818Z,97076.38
2023-01-29T08:54:49.140Z,97080.94
2023-01-29T08:57:15.532Z,97080.44
2023-01-29T08:59:42.341Z,97081.91
2023-01-29T09:02:11.803Z,97081.88
2023-01-29T09:04:38.131Z,97091.72
2023-01-29T09:07:05.585Z,97089.19
2023-01-29T09:09:31.887Z,97092.91
2023-01-29T09:11:58.220Z,97094.59
2023-01-29T09:14:25.005Z,97101.78
2023-01-29T09:16:51.402Z,97102.53
2023-01-29T09:19:17.744Z,97111.53
2023-01-29T09:21:44.568Z,97108.75
2023-01-29T09:24:10.940Z,97113.97
2023-01-29T09:26:39.513Z,97122.94
2023-01-29T09:29:06.768Z,97112.44
2023-01-29T09:31:33.470Z,97123.03
2023-01-29T09:33:59.891Z,97116.91
2023-01-29T09:36:26.394Z,97122.94
2023-01-29T09:38:52.703Z,97134.06
2023-01-29T09:41:52.682Z,97130.63
2023-01-29T09:44:54.324Z,97130.00
2023-01-29T09:47:26.212Z,97136.84
2023-01-29T09:49:59.883Z,97131.06
2023-01-29T09:52:31.152Z,97120.94
2023-01-29T09:55:02.256Z,97112.56
2023-01-29T09:57:41.436Z,97116.53
2023-01-29T10:00:20.349Z,97111.53
2023-01-29T10:03:08.358Z,97109.38
2023-01-29T10:05:43.851Z,97092.81
2023-01-29T10:09:07.693Z,97094.19
2023-01-29T10:11:42.759Z,97098.91
2023-01-29T10:14:20.534Z,97091.34
2023-01-29T10:16:57.963Z,97083.97
2023-01-29T10:19:36.546Z,97093.38
2023-01-29T10:22:30.279Z,97095.63
2023-01-29T10:25:00.308Z,97086.28
2023-01-29T10:27:38.352Z,97073.41
2023-01-29T10:30:09.907Z,97071.31
2023-01-29T10:32:37.406Z,97067.97
2023-01-29T10:35:18.429Z,97051.09
2023-01-29T10:37:44.975Z,97062.13
2023-01-29T10:40:28.553Z,97068.41
2023-01-29T10:43:14.142Z,97055.72
2023-01-29T10:45:55.154Z,97053.81
2023-01-29T10:48:44.528Z,97052.34
2023-01-29T10:51:34.592Z,97049.94
2023-01-29T10:54:21.377Z,97058.72
2023-01-29T10:57:23.178Z,97055.28
2023-01-29T10:59:58.562Z,97048.59
2023-01-29T11:02:25.929Z,97046.25
2023-01-29T11:04:52.339Z,97040.53
2023-01-29T11:07:21.682Z,97038.88
2023-01-29T11:10:10.820Z,97044.41
2023-01-29T11:12:38.719Z,97043.19
2023-01-29T11:15:18.622Z,97047.06
2023-01-29T11:18:06.933Z,97052.72
2023-01-29T11:20:34.068Z,97039.63
2023-01-29T11:23:00.480Z,97039.06
2023-01-29T11:25:28.845Z,97027.41
2023-01-29T11:28:02.001Z,97021.41
2023-01-29T11:30:30.360Z,97014.75
2023-01-29T11:33:24.195Z,97013.75
2023-01-29T11:35:52.452Z,97025.53
2023-01-29T11:38:23.530Z,97014.13
2023-01-29T11:40:50.727Z,97025.97
2023-01-29T11:43:31.589Z,97031.81
2023-01-29T11:46:05.604Z,97024.94
2023-01-29T11:48:50.034Z,97019.81
2023-01-29T11:51:43.097Z,97018.50
2023-01-29T11:54:19.701Z,97017.53
2023-01-29T11:56:48.302Z,97013.91
2023-01-29T11:59:31.997Z,97003.78
2023-01-29T12:02:16.447Z,97000.97
2023-01-29T12:04:43.046Z,96995.16
2023-01-29T12:07:15.810Z,96991.19
2023-01-29T12:09:55.436Z,96982.25
2023-01-29T12:12:36.642Z,96976.63
2023-01-29T12:15:20.233Z,96968.13
2023-01-29T12:17:53.611Z,96971.22
2023-01-29T12:20:26.863Z,96971.78
2023-01-29T12:23:02.803Z,96967.84
2023-01-29T12:25:50.716Z,96964.63
2023-01-29T12:28:39.074Z,96948.91
2023-01-29T12:31:27.972Z,96946.56
2023-01-29T12:34:06.655Z,96942.13
2023-01-29T12:37:11.602Z,96934.34
2023-01-29T12:39:37.983Z,96933.19
2023-01-29T12:42:23.877Z,96933.88
2023-01-29T12:44:58.485Z,96920.59
2023-01-29T12:47:33.960Z,96922.38
2023-01-29T12:50:27.489Z,96921.06
2023-01-29T12:53:03.607Z,96923.19
2023-01-29T12:55:40.834Z,96919.38
2023-01-29T12:58:13.913Z,96911.56
2023-01-29T13:00:45.292Z,96908.72
2023-01-29T13:03:25.730Z,96906.56
2023-01-29T13:05:55.139Z,96900.56
2023-01-29T13:08:36.092Z,96909.53
2023-01-29T13:11:08.949Z,96903.28
2023-01-29T13:13:54.366Z,96893.41
2023-01-29T13:16:25.968Z,96886.41
2023-01-29T13:19:00.821Z,96881.88
2023-01-29T13:21:30.884Z,96866.03
2023-01-29T13:24:05.896Z,96870.06
2023-01-29T13:26:34.394Z,96865.09
2023-01-29T13:29:01.441Z,96880.81
2023-01-29T13:31:37.095Z,96884.88
2023-01-29T13:34:28.271Z,96876.75
2023-01-29T13:36:58.708Z,96871.94
2023-01-29T13:39:44.004Z,96882.78
2023-01-29T13:42:21.584Z,96878.94
2023-01-29T13:44:55.942Z,96864.34
2023-01-29T13:47:27.912Z,96860.44
2023-01-29T13:50:33.896Z,96847.66
2023-01-29T13:53:03.329Z,96867.50
2023-01-29T13:55:32.669Z,96869.03
2023-01-29T13:58:00.838Z,96866.75
2023-01-29T14:00:33.020Z,96868.81
2023-01-29T14:03:11.242Z,96858.81
2023-01-29T14:05:58.109Z,96877.56
2023-01-29T14:08:38.240Z,96881.78
2023-01-29T14:11:14.767Z,96877.47
2023-01-29T14:13:47.905Z,96869.44
2023-01-29T14:16:14.575Z,96865.75
2023-01-29T14:18:53.618Z,96869.00
2023-01-29T14:21:35.303Z,96872.72
2023-01-29T14:24:18.788Z,96882.31
2023-01-29T14:26:48.455Z,96878.50
2023-01-29T14:29:33.939Z,96879.25
2023-01-29T14:32:11.941Z,96865.31
2023-01-29T14:34:45.707Z,96864.81
2023-01-29T14:37:15.341Z,96869.25
2023-01-29T14:39:48.089Z,96858.69
2023-01-29T14:42:29.348Z,96866.72
2023-01-29T14:44:55.633Z,96869.19
2023-01-29T14:47:43.350Z,96861.09
2023-01-29T14:50:18.676Z,96862.25
2023-01-29T14:52:47.738Z,96866.28
2023-01-29T14:55:35.842Z,96870.16
2023-01-29T14:58:03.997Z,96874.25
2023-01-29T15:00:34.748Z,96880.75
2023-01-29T15:03:03.951Z,96878.03
2023-01-29T15:05:37.857Z,96886.66
2023-01-29T15:08:30.526Z,96892.25
2023-01-29T15:11:19.514Z,96896.56
2023-01-29T15:14:08.954Z,96896.91
2023-01-29T15:16:44.612Z,96891.78
2023-01-29T15:19:36.044Z,96891.53
2023-01-29T15:22:04.440Z,96883.09
2023-01-29T15:24:30.798Z,96876.59
2023-01-29T15:26:57.452Z,96874.88
2023-01-29T15:29:27.341Z,96882.38
2023-01-29T15:31:55.314Z,96890.06
2023-01-29T15:34:22.283Z,96892.44
2023-01-29T15:36:50.509Z,96875.50
2023-01-29T15:39:19.013Z,96876.41
2023-01-29T15:41:46.097Z,96880.09
2023-01-29T15:44:18.964Z,96877.81
2023-01-29T15:47:05.592Z,96868.38
2023-01-29T15:49:36.069Z,96867.81
2023-01-29T15:52:09.521Z,96863.84
2023-01-29T15:54:36.437Z,96869.44
2023-01-29T15:57:03.573Z,96858.13
2023-01-29T15:59:35.293Z,96850.25
2023-01-29T16:02:38.331Z,96842.66
2023-01-29T16:05:07.076Z,96842.94
2023-01-29T16:07:34.955Z,96850.03
2023-01-29T16:10:02.384Z,96853.59
2023-01-29T16:12:29.221Z,96845.09
2023-01-29T16:14:56.734Z,96861.78
2023-01-29T16:17:26.105Z,96855.19
2023-01-29T16:20:00.701Z,96847.47
2023-01-29T16:22:32.201Z,96860.75
2023-01-29T16:25:05.803Z,96855.19
2023-01-29T16:27:33.439Z,96858.25
2023-01-29T16:30:02.060Z,96857.94
2023-01-29T16:32:30.838Z,96848.72
2023-01-29T16:34:59.903Z,96845.03
2023-01-29T16:37:30.580Z,96850.16
2023-01-29T16:39:57.822Z,96852.19
2023-01-29T16:42:31.939Z,96853.13
2023-01-29T16:45:04.565Z,96869.34
2023-01-29T16:47:38.202Z,96867.34
2023-01-29T16:50:26.864Z,96867.91
2023-01-29T16:53:01.092Z,96869.63
2023-01-29T16:55:35.387Z,96878.59
2023-01-29T16:58:11.387Z,96866.41
2023-01-29T17:00:42.908Z,96878.16
2023-01-29T17:03:12.940Z,96880.16
2023-01-29T17:05:39.316Z,96881.00
2023-01-29T17:08:07.201Z,96878.88
2023-01-29T17:10:34.249Z,96892.34
2023-01-29T17:13:05.518Z,96894.94
2023-01-29T17:15:35.884Z,96892.09
2023-01-29T17:18:03.469Z,96884.31
2023-01-29T17:20:30.315Z,96884.09
2023-01-29T17:22:56.636Z,96889.41
2023-01-29T17:25:23.623Z,96887.75
2023-01-29T17:27:52.881Z,96885.53
2023-01-29T17:30:22.191Z,96897.09
2023-01-29T17:32:48.594Z,96895.47
2023-01-29T17:35:16.964Z,96890.47
2023-01-29T17:37:44.315Z,96892.03
2023-01-29T17:40:27.557Z,96888.13
2023-01-29T17:42:53.876Z,96894.25
2023-01-29T17:45:20.313Z,96892.13
2023-01-29T17:47:47.246Z,96901.13
2023-01-29T17:50:22.397Z,96905.38
2023-01-29T17:52:50.011Z,96897.00
2023-01-29T17:55:17.196Z,96892.50
2023-01-29T17:57:43.668Z,96890.25
2023-01-29T18:00:19.165Z,96892.16
2023-01-29T18:02:45.596Z,96892.59
2023-01-29T18:05:13.198Z,96893.31
2023-01-29T18:07:41.854Z,96888.38
2023-01-29T18:10:20.168Z,96887.97
2023-01-29T18:12:46.847Z,96882.91
2023-01-29T18:15:13.480Z,96884.09
2023-01-29T18:17:40.678Z,96873.69
2023-01-29T18:20:27.460Z,96876.16
2023-01-29T18:22:54.361Z,96891.19
2023-01-29T18:25:21.155Z,96885.38
2023-01-29T18:27:47.717Z,96881.97
2023-01-29T18:30:14.884Z,96878.97
2023-01-29T18:32:41.247Z,96883.59
2023-01-29T18:35:08.255Z,96874.25
2023-01-29T18:37:35.016Z,96883.34
2023-01-29T18:40:01.461Z,96882.41
2023-01-29T18:42:31.127Z,96881.69
2023-01-29T18:44:57.803Z,96881.81
2023-01-29T18:47:24.352Z,96885.22
2023-01-29T18:49:51.841Z,96882.63
2023-01-29T18:52:18.848Z,96885.34
2023-01-29T18:54:45.193Z,96889.50
2023-01-29T18:57:14.459Z,96887.81
2023-01-29T18:59:58.335Z,96894.41
2023-01-29T19:02:24.751Z,96889.69
2023-01-29T19:04:51.648Z,96882.59
2023-01-29T19:07:18.361Z,96894.56
2023-01-29T19:09:46.392Z,96884.50
2023-01-29T19:12:12.790Z,96881.91
2023-01-29T19:14:39.497Z,96881.69
2023-01-29T19:17:05.841Z,96882.72
2023-01-29T19:19:32.612Z,96880.25
2023-01-29T19:21:59.367Z,96880.25
2023-01-29T19:24:25.824Z,96889.22
2023-01-29T19:26:52.527Z,96888.97
2023-01-29T19:29:20.041Z,96879.41
2023-01-29T19:31:47.878Z,96878.59
2023-01-29T19:34:14.344Z,96875.06
2023-01-29T19:36:41.031Z,96877.91
2023-01-29T19:39:07.382Z,96874.81
2023-01-29T19:41:34.827Z,96872.56
2023-01-29T19:44:01.474Z,96878.59
2023-01-29T19:46:30.554Z,96868.75
2023-01-29T19:48:58.521Z,96873.84
2023-01-29T19:51:26.591Z,96872.41
2023-01-29T19:53:53.949Z,96869.94
2023-01-29T19:56:20.644Z,96876.19
2023-01-29T19:58:47.974Z,96875.47
2023-01-29T20:01:20.079Z,96877.69
2023-01-29T20:03:48.962Z,96882.78
2023-01-29T20:06:17.928Z,96876.88
2023-01-29T20:08:46.252Z,96889.59
2023-01-29T20:11:14.910Z,96889.59
2023-01-29T20:13:41.268Z,96889.81
2023-01-29T20:16:08.037Z,96889.59
2023-01-29T20:18:34.964Z,96875.66
2023-01-29T20:21:06.764Z,96874.59
2023-01-29T20:23:38.191Z,96871.16
2023-01-29T20:26:11.812Z,96875.44
2023-01-29T20:28:38.236Z,96877.19
2023-01-29T20:31:06.219Z,96875.66
2023-01-29T20:33:35.471Z,96882.69
2023-01-29T20:36:05.875Z,96875.69
2023-01-29T20:38:33.739Z,96881.38
2023-01-29T20:41:09.185Z,96883.34
2023-01-29T20:43:36.335Z,96875.44
2023-01-29T20:46:03.730Z,96874.53
2023-01-29T20:48:31.247Z,96868.94
2023-01-29T20:51:04.701Z,96871.41
2023-01-29T20:53:31.544Z,96863.03
2023-01-29T20:55:57.918Z,96860.34
2023-01-29T20:58:24.504Z,96846.84
2023-01-29T21:00:51.256Z,96849.78
2023-01-29T21:03:17.580Z,96852.25
2023-01-29T21:05:43.960Z,96859.44
2023-01-29T21:08:12.238Z,96851.03
2023-01-29T21:10:38.804Z,96847.25
2023-01-29T21:13:05.117Z,96854.41
2023-01-29T21:15:31.899Z,96834.81
2023-01-29T21:18:02.247Z,96841.53
2023-01-29T21:20:29.023Z,96834.69
2023-01-29T21:22:55.344Z,96835.75
2023-01-29T21:25:22.933Z,96823.47
2023-01-29T21:27:49.797Z,96827.81
2023-01-29T21:30:18.007Z,96814.84
2023-01-29T21:32:45.185Z,96821.00
2023-01-29T21:35:11.608Z,96806.47
2023-01-29T21:37:38.000Z,96813.41
2023-01-29T21:40:06.175Z,96805.25
2023-01-29T21:42:50.859Z,96811.50
2023-01-29T21:45:17.717Z,96824.81
2023-01-29T21:47:44.279Z,96816.31
2023-01-29T21:50:11.687Z,96817.16
2023-01-29T21:52:38.082Z,96829.41
2023-01-29T21:55:06.268Z,96824.44
2023-01-29T21:57:32.643Z,96818.63
2023-01-29T21:59:59.316Z,96817.69
2023-01-29T22:02:27.950Z,96812.72
2023-01-29T22:05:08.702Z,96815.09
2023-01-29T22:07:44.588Z,96814.97
2023-01-29T22:10:12.191Z,96807.19
2023-01-29T22:12:38.991Z,96810.41
2023-01-29T22:15:07.499Z,96801.19
2023-01-29T22:17:34.184Z,96801.19
2023-01-29T22:20:01.076Z,96801.06
2023-01-29T22:22:27.644Z,96806.03
2023-01-29T22:24:55.046Z,96800.84
2023-01-29T22:27:21.379Z,96810.28
2023-01-29T22:29:48.079Z,96811.13
2023-01-29T22:32:14.419Z,96811.13
2023-01-29T22:34:40.789Z,96803.59
2023-01-29T22:37:07.587Z,96800.91
2023-01-29T22:39:33.935Z,96798.56
2023-01-29T22:42:00.254Z,96797.59
2023-01-29T22:44:27.132Z,96785.81
2023-01-29T22:46:53.899Z,96776.22
2023-01-29T22:49:20.281Z,96775.53
2023-01-29T22:51:47.055Z,96767.63
2023-01-29T22:54:16.031Z,96764.78
2023-01-29T22:56:42.364Z,96765.75
2023-01-29T22:59:09.920Z,96753.47
2023-01-29T23:01:36.600Z,96764.56
2023-01-29T23:04:02.981Z,96756.41
2023-01-29T23:06:29.291Z,96755.13
2023-01-29T23:08:56.216Z,96755.38
2023-01-29T23:11:23.495Z,96755.38
2023-01-29T23:13:54.643Z,96757.13
2023-01-29T23:16:27.714Z,96753.69
2023-01-29T23:18:55.626Z,96747.78
2023-01-29T23:21:25.291Z,96751.81
2023-01-29T23:24:01.203Z,96752.66
2023-01-29T23:26:47.959Z,96748.28
2023-01-29T23:29:14.676Z,96737.19
2023-01-29T23:31:41.209Z,96739.06
2023-01-29T23:34:07.987Z,96728.34
2023-01-29T23:36:34.544Z,96727.03
2023-01-29T23:39:01.465Z,96715.44
2023-01-29T23:41:27.823Z,96704.22
2023-01-29T23:43:54.184Z,96691.84
2023-01-29T23:46:21.245Z,96678.59
2023-01-29T23:48:47.598Z,96676.72
2023-01-29T23:51:14.014Z,96675.28
2023-01-29T23:53:40.945Z,96674.47
2023-01-29T23:56:07.625Z,96667.72
2023-01-29T23:58:34.191Z,96651.44
